Port Hope, Canada
Current Conditions -  °F | °C
As of 1:00 AM on Sunday 21 Dec 2014 (Local Time) from CYPQ Reporting Station
Overcast Overcast  
Wind Chill: 25°   Ceiling: 9500
Heat Index: 25°   Visibility: 9mi
Dew Point: 25°   Wind: 2mph
Humidity: 100%   Direction: 80°E
Pressure: 30.26"   Gusts: NA
Location:  43.95°N, 78.3°W
Report Text: CYPQ 210600Z AUTO 08002KT 9SM OVC095 M04/M04 A3026 RMK SLP258
Loading
Personal Weather Stations






























Interactive Weather Map New forecast layout! Learn more

10-Day Weather Forecast

Advertisements
Track Severe Weather on mobile